Time,TemperatureF,DewpointF,PressureIn,WindDirection,WindDirectionDegrees,WindSpeedMPH,WindSpeedGustMPH,Humidity,HourlyPrecipIn,Conditions,Clouds,dailyrainin,SolarRadiationWatts/m^2,SoftwareType,DateUTC
2013-04-29 00:02:00,63.0,60.0,-100.00,SE,131,0.0,4.0,91,0.00,,,0.00,0.000000,,2013-04-29 10:02:00,
2013-04-29 00:12:00,63.0,60.0,-100.00,SE,131,0.0,4.0,91,0.00,,,0.00,0.000000,,2013-04-29 10:12:00,
2013-04-29 00:22:00,63.0,60.0,-100.00,SE,131,0.0,4.0,91,0.00,,,0.00,0.000000,,2013-04-29 10:22:00,
2013-04-29 00:32:00,63.0,60.0,-100.00,SE,131,0.0,4.0,91,0.00,,,0.00,0.000000,,2013-04-29 10:32:00,
2013-04-29 01:02:00,64.0,60.0,-100.00,SSW,193,3.0,6.0,88,0.00,,,0.00,0.000000,,2013-04-29 11:02:00,
2013-04-29 01:12:00,64.0,60.0,-100.00,SSW,193,3.0,6.0,88,0.00,,,0.00,0.000000,,2013-04-29 11:12:00,
2013-04-29 01:21:00,64.0,60.0,-100.00,SSW,193,3.0,6.0,88,0.00,,,0.00,0.000000,,2013-04-29 11:21:00,
2013-04-29 01:31:00,64.0,60.0,-100.00,SSW,193,3.0,6.0,88,0.00,,,0.00,0.000000,,2013-04-29 11:31:00,
2013-04-29 02:01:00,62.0,58.0,-100.00,SW,229,0.0,6.0,88,0.00,,,0.00,0.000000,,2013-04-29 12:01:00,
2013-04-29 02:12:00,62.0,58.0,-100.00,SW,229,0.0,6.0,88,0.00,,,0.00,0.000000,,2013-04-29 12:12:00,
2013-04-29 02:21:00,62.0,58.0,-100.00,SW,229,0.0,6.0,88,0.00,,,0.00,0.000000,,2013-04-29 12:21:00,
2013-04-29 02:31:00,62.0,58.0,-100.00,SW,229,0.0,6.0,88,0.00,,,0.00,0.000000,,2013-04-29 12:31:00,
2013-04-29 03:01:00,62.0,61.0,-100.00,SE,128,0.0,4.0,97,0.00,,,0.00,0.000000,,2013-04-29 13:01:00,
2013-04-29 03:11:00,62.0,61.0,-100.00,SE,128,0.0,4.0,97,0.00,,,0.00,0.000000,,2013-04-29 13:11:00,
2013-04-29 03:21:00,62.0,61.0,-100.00,SE,128,0.0,4.0,97,0.00,,,0.00,0.000000,,2013-04-29 13:21:00,
2013-04-29 03:31:00,62.0,61.0,-100.00,SE,128,0.0,4.0,97,0.00,,,0.00,0.000000,,2013-04-29 13:31:00,
2013-04-29 04:01:00,62.0,61.0,-100.00,SE,130,2.0,6.0,97,0.00,,,0.00,0.000000,,2013-04-29 14:01:00,
2013-04-29 04:11:00,62.0,61.0,-100.00,SE,130,2.0,6.0,97,0.00,,,0.00,0.000000,,2013-04-29 14:11:00,
2013-04-29 04:21:00,62.0,61.0,-100.00,SE,130,2.0,6.0,97,0.00,,,0.00,0.000000,,2013-04-29 14:21:00,
2013-04-29 04:32:00,62.0,61.0,-100.00,SE,130,2.0,6.0,97,0.00,,,0.00,0.000000,,2013-04-29 14:32:00,
2013-04-29 05:01:00,61.0,60.0,-100.00,ESE,105,0.0,5.0,98,0.00,,,0.00,0.000000,,2013-04-29 15:01:00,
2013-04-29 05:12:00,61.0,60.0,-100.00,ESE,105,0.0,5.0,98,0.00,,,0.00,0.000000,,2013-04-29 15:12:00,
2013-04-29 05:21:00,61.0,60.0,-100.00,ESE,105,0.0,5.0,98,0.00,,,0.00,0.000000,,2013-04-29 15:21:00,
2013-04-29 05:33:00,61.0,60.0,-100.00,ESE,105,0.0,5.0,98,0.00,,,0.00,0.000000,,2013-04-29 15:33:00,
2013-04-29 06:02:00,61.0,61.0,-100.00,SE,133,2.0,5.0,99,0.00,,,0.00,0.000000,,2013-04-29 16:02:00,
2013-04-29 06:12:00,61.0,61.0,-100.00,SE,133,2.0,5.0,99,0.00,,,0.00,0.000000,,2013-04-29 16:12:00,
2013-04-29 06:23:00,61.0,61.0,-100.00,SE,133,2.0,5.0,99,0.00,,,0.00,0.000000,,2013-04-29 16:23:00,
2013-04-29 06:32:00,61.0,61.0,-100.00,SE,133,2.0,5.0,99,0.00,,,0.00,0.000000,,2013-04-29 16:32:00,
2013-04-29 07:02:00,61.0,61.0,-100.00,SE,143,4.0,9.0,99,0.00,,,0.00,26.000000,,2013-04-29 17:02:00,
2013-04-29 07:12:00,61.0,61.0,-100.00,SE,143,4.0,9.0,99,0.00,,,0.00,26.000000,,2013-04-29 17:12:00,
2013-04-29 07:22:00,61.0,61.0,-100.00,SE,143,4.0,9.0,99,0.00,,,0.00,26.000000,,2013-04-29 17:22:00,
2013-04-29 07:31:00,61.0,61.0,-100.00,SE,143,4.0,9.0,99,0.00,,,0.00,26.000000,,2013-04-29 17:31:00,
2013-04-29 08:01:00,70.0,57.0,-100.00,East,100,1.0,8.0,64,0.00,,,0.00,251.000000,,2013-04-29 18:01:00,
2013-04-29 08:13:00,70.0,57.0,-100.00,East,100,1.0,8.0,64,0.00,,,0.00,251.000000,,2013-04-29 18:13:00,
2013-04-29 08:22:00,70.0,57.0,-100.00,East,100,1.0,8.0,64,0.00,,,0.00,251.000000,,2013-04-29 18:22:00,
2013-04-29 08:31:00,70.0,57.0,-100.00,East,100,1.0,8.0,64,0.00,,,0.00,251.000000,,2013-04-29 18:31:00,
2013-04-29 09:01:00,74.0,60.0,-100.00,North,11,2.0,9.0,62,0.00,,,0.00,555.000000,,2013-04-29 19:01:00,
2013-04-29 09:11:00,74.0,60.0,-100.00,North,11,2.0,9.0,62,0.00,,,0.00,555.000000,,2013-04-29 19:11:00,
2013-04-29 09:21:00,74.0,60.0,-100.00,North,11,2.0,9.0,62,0.00,,,0.00,555.000000,,2013-04-29 19:21:00,
2013-04-29 09:31:00,74.0,60.0,-100.00,North,11,2.0,9.0,62,0.00,,,0.00,555.000000,,2013-04-29 19:31:00,
2013-04-29 10:02:00,73.0,57.0,-100.00,NW,321,4.0,11.0,57,0.00,,,0.00,677.000000,,2013-04-29 20:02:00,
2013-04-29 10:11:00,73.0,57.0,-100.00,NW,321,4.0,11.0,57,0.00,,,0.00,677.000000,,2013-04-29 20:11:00,
2013-04-29 10:21:00,73.0,57.0,-100.00,NW,321,4.0,11.0,57,0.00,,,0.00,677.000000,,2013-04-29 20:21:00,
2013-04-29 10:32:00,73.0,57.0,-100.00,NW,321,4.0,11.0,57,0.00,,,0.00,677.000000,,2013-04-29 20:32:00,
2013-04-29 11:01:00,76.0,60.0,-100.00,NNW,341,7.0,13.0,58,0.00,,,0.00,869.000000,,2013-04-29 21:01:00,
2013-04-29 11:11:00,76.0,60.0,-100.00,NNW,341,7.0,13.0,58,0.00,,,0.00,869.000000,,2013-04-29 21:11:00,
2013-04-29 11:21:00,76.0,60.0,-100.00,NNW,341,7.0,13.0,58,0.00,,,0.00,869.000000,,2013-04-29 21:21:00,
2013-04-29 11:32:00,76.0,60.0,-100.00,NNW,341,7.0,13.0,58,0.00,,,0.00,869.000000,,2013-04-29 21:32:00,
2013-04-29 12:02:00,73.0,59.0,-100.00,NW,315,7.0,15.0,61,0.00,,,0.00,772.000000,,2013-04-29 22:02:00,
2013-04-29 12:13:00,73.0,59.0,-100.00,NW,315,7.0,15.0,61,0.00,,,0.00,772.000000,,2013-04-29 22:13:00,
2013-04-29 12:23:00,73.0,59.0,-100.00,NW,315,7.0,15.0,61,0.00,,,0.00,772.000000,,2013-04-29 22:23:00,
2013-04-29 12:32:00,73.0,59.0,-100.00,NW,315,7.0,15.0,61,0.00,,,0.00,772.000000,,2013-04-29 22:32:00,
2013-04-29 13:02:00,74.0,63.0,-100.00,NW,324,9.0,15.0,68,0.00,,,0.00,661.000000,,2013-04-29 23:02:00,
2013-04-29 13:11:00,74.0,63.0,-100.00,NW,324,9.0,15.0,68,0.00,,,0.00,661.000000,,2013-04-29 23:11:00,
2013-04-29 13:22:00,74.0,63.0,-100.00,NW,324,9.0,15.0,68,0.00,,,0.00,661.000000,,2013-04-29 23:22:00,
2013-04-29 13:31:00,74.0,63.0,-100.00,NW,324,9.0,15.0,68,0.00,,,0.00,661.000000,,2013-04-29 23:31:00,
2013-04-29 14:01:00,75.0,62.0,-100.00,NW,326,7.0,17.0,63,0.00,,,0.00,674.000000,,2013-04-30 00:01:00,
2013-04-29 14:11:00,75.0,62.0,-100.00,NW,326,7.0,17.0,63,0.00,,,0.00,674.000000,,2013-04-30 00:11:00,
2013-04-29 14:21:00,75.0,62.0,-100.00,NW,326,7.0,17.0,63,0.00,,,0.00,674.000000,,2013-04-30 00:21:00,
2013-04-29 14:31:00,75.0,62.0,-100.00,NW,326,7.0,17.0,63,0.00,,,0.00,674.000000,,2013-04-30 00:31:00,
2013-04-29 15:01:00,73.0,63.0,-100.00,NW,308,9.0,17.0,72,0.00,,,0.00,391.000000,,2013-04-30 01:01:00,
2013-04-29 15:11:00,73.0,63.0,-100.00,NW,308,9.0,17.0,72,0.00,,,0.00,391.000000,,2013-04-30 01:11:00,
2013-04-29 15:21:00,73.0,63.0,-100.00,NW,308,9.0,17.0,72,0.00,,,0.00,391.000000,,2013-04-30 01:21:00,
2013-04-29 15:31:00,73.0,63.0,-100.00,NW,308,9.0,17.0,72,0.00,,,0.00,391.000000,,2013-04-30 01:31:00,
2013-04-29 16:01:00,72.0,61.0,-100.00,NNW,327,9.0,16.0,68,0.00,,,0.00,562.000000,,2013-04-30 02:01:00,
2013-04-29 16:11:00,72.0,61.0,-100.00,NNW,327,9.0,16.0,68,0.00,,,0.00,562.000000,,2013-04-30 02:11:00,
2013-04-29 16:21:00,72.0,61.0,-100.00,NNW,327,9.0,16.0,68,0.00,,,0.00,562.000000,,2013-04-30 02:21:00,
2013-04-29 16:31:00,72.0,61.0,-100.00,NNW,327,9.0,16.0,68,0.00,,,0.00,562.000000,,2013-04-30 02:31:00,
2013-04-29 17:01:00,71.0,64.0,-100.00,NNW,345,8.0,16.0,79,0.00,,,0.00,426.000000,,2013-04-30 03:01:00,
2013-04-29 17:11:00,71.0,64.0,-100.00,NNW,345,8.0,16.0,79,0.00,,,0.00,426.000000,,2013-04-30 03:11:00,
2013-04-29 17:21:00,71.0,64.0,-100.00,NNW,345,8.0,16.0,79,0.00,,,0.00,426.000000,,2013-04-30 03:21:00,
2013-04-29 17:33:00,71.0,64.0,-100.00,NNW,345,8.0,16.0,79,0.00,,,0.00,426.000000,,2013-04-30 03:33:00,
2013-04-29 19:02:00,66.0,65.0,-100.00,NNW,340,6.0,11.0,98,-99.99,,,0.00,37.000000,,2013-04-30 05:02:00,
2013-04-29 19:11:00,66.0,65.0,-100.00,NNW,340,6.0,11.0,98,-99.99,,,0.00,37.000000,,2013-04-30 05:11:00,
2013-04-29 19:22:00,66.0,65.0,-100.00,NNW,340,6.0,11.0,98,-99.99,,,0.00,37.000000,,2013-04-30 05:22:00,
2013-04-29 19:31:00,66.0,65.0,-100.00,NNW,340,6.0,11.0,98,-99.99,,,0.00,37.000000,,2013-04-30 05:31:00,
2013-04-29 20:01:00,66.0,66.0,-100.00,NNE,28,3.0,9.0,99,0.00,,,0.00,0.000000,,2013-04-30 06:01:00,
2013-04-29 20:11:00,66.0,66.0,-100.00,NNE,28,3.0,9.0,99,0.00,,,0.00,0.000000,,2013-04-30 06:11:00,
2013-04-29 20:21:00,66.0,66.0,-100.00,NNE,28,3.0,9.0,99,0.00,,,0.00,0.000000,,2013-04-30 06:21:00,
2013-04-29 20:31:00,66.0,66.0,-100.00,NNE,28,3.0,9.0,99,0.00,,,0.00,0.000000,,2013-04-30 06:31:00,
2013-04-29 21:01:00,65.0,65.0,-100.00,North,10,3.0,7.0,100,0.01,,,0.01,0.000000,,2013-04-30 07:01:00,
2013-04-29 21:11:00,65.0,65.0,-100.00,North,10,3.0,7.0,100,0.01,,,0.01,0.000000,,2013-04-30 07:11:00,
2013-04-29 21:21:00,65.0,65.0,-100.00,North,10,3.0,7.0,100,0.01,,,0.01,0.000000,,2013-04-30 07:21:00,
2013-04-29 21:31:00,65.0,65.0,-100.00,North,10,3.0,7.0,100,0.01,,,0.01,0.000000,,2013-04-30 07:31:00,
2013-04-29 22:02:00,64.0,64.0,-100.00,ENE,58,0.0,6.0,100,0.00,,,0.01,0.000000,,2013-04-30 08:02:00,
2013-04-29 22:11:00,64.0,64.0,-100.00,ENE,58,0.0,6.0,100,0.00,,,0.01,0.000000,,2013-04-30 08:11:00,
2013-04-29 22:21:00,64.0,64.0,-100.00,ENE,58,0.0,6.0,100,0.00,,,0.01,0.000000,,2013-04-30 08:21:00,
2013-04-29 22:32:00,64.0,64.0,-100.00,ENE,58,0.0,6.0,100,0.00,,,0.01,0.000000,,2013-04-30 08:32:00,
2013-04-29 23:01:00,62.0,62.0,-100.00,ESE,114,1.0,5.0,99,0.00,,,0.01,0.000000,,2013-04-30 09:01:00,
2013-04-29 23:11:00,62.0,62.0,-100.00,ESE,114,1.0,5.0,99,0.00,,,0.01,0.000000,,2013-04-30 09:11:00,
2013-04-29 23:21:00,62.0,62.0,-100.00,ESE,114,1.0,5.0,99,0.00,,,0.01,0.000000,,2013-04-30 09:21:00,
2013-04-29 23:32:00,62.0,62.0,-100.00,ESE,114,1.0,5.0,99,0.00,,,0.01,0.000000,,2013-04-30 09:32:00,